< < Back
Terminal Aerodrome Forecast


Current Version              Previous Versions:   1  2  3  4  5  6  7  8  9  

Terminal Aerodrome Forecast

164
FTUS42 KMLB 250500
TAFDAB
TAF
KDAB 250536Z 2506/2606 23004KT P6SM FEW025 SCT250
     FM251800 13008KT P6SM VCTS SCT035CB BKN080
     FM260200 19005KT P6SM SCT080 BKN250=

Latest METAR

118
SAUS80 KWBC 250600 RRC
MTRDAB
METAR KDAB 250553Z 20004KT 10SM FEW017 FEW075 SCT095 24/24 A3004 RMK AO2
SLP170 T02440239 10250 20239 56002


USA.gov is the U.S. government's official web portal to all federal, state and local government web resources and services.